Gardner, MA (01440)

9:21 PM EDT on July 26, 2017 (GMT -0400)
South Gardner | | Change Station

Elev 800 ft 42.57 °N, 71.98 °W | Updated 2 seconds ago

Mostly Cloudy
Mostly Cloudy
63.5 °F
Feels Like 63.5 °F
N
0.0
Wind Variable Wind from East

Today
High -- | Low -- °F
--% Chance of Precip.
Yesterday
High -- | Low -- °F
Precip. -- in
Pressure 30.12 in
Visibility 10.0 miles
Clouds Clear
Dew Point 58 °F
Humidity 81%
Rainfall 0.00 in
Snow Depth Not available.
5:34 AM 8:14 PM
Waxing Crescent, 17% visible
METAR KFIT 270052Z AUTO 07003KT 10SM CLR 22/15 A3012 RMK AO2 SLP198 T02170150
Pressure 30.12 in
Visibility 10.0 miles
Clouds Clear
Dew Point 58 °F
Humidity 81%
Rainfall 0.00 in
Snow Depth Not available.
5:34 AM 8:14 PM
Waxing Crescent, 17% visible
METAR KFIT 270052Z AUTO 07003KT 10SM CLR 22/15 A3012 RMK AO2 SLP198 T02170150

Get Severe Weather Alerts

Thanks for signing up!

Be on the lookout for a verification email in your inbox.

You'll start receiving the daily forecast at 6 AM.

×

10-Day Weather Forecast

Almanac

Astronomy

Jul. 26, 2017 Rise Set
Actual Time
Civil Twilight
Nautical Twilight
Astronomical Twilight
Moon
Length of Visible Light
Length of Day
Tomorrow will be .
, % of the Moon is Illuminated

Today's Extremes

State Highs State Lows

Community

WunderPhotos

Category 6

Welcome to Category 6. This is the collective home for Weather Underground's featured writeups by Dr. Jeff Masters (right), Bob Henson (left), Chris Burt, and other regular contributors.

Nearby

Air Quality

  Air Quality AQ Index Pollutant
Not available.

Snow Depth

Station Depth Elevation

Earthquake Activity

City Distance Mag. Time & Date
Minimum magnitude displayed is 2.5.

Coastal Water Temperatures

Place Temperature

Stations

Nearby Weather Stations

Station Location Temp. Windchill Dew Point Humidity Wind Precip. Elev Updated Type
                   

Watches & Warnings

There are currently no watches in effect.